Time;durP1;ratioP1;P1;durP2;ratioP2;P2;SDS_P1;SDS_P2;PMS_P1;PMS_P2;Temp;Humidity;BMP_temperature;BMP_pressure;BME280_temperature;BME280_humidity;BME280_pressure;Samples;Min_cycle;Max_cycle;Signal;HPM_P1;HPM_P2
2021/07/26 00:03:00;;;;;;;23.60;19.85;;;;;;;17.55;70.85;99621.40;2080609;82;21057;-78
2021/07/26 00:06:01;;;;;;;22.52;19.35;;;;;;;17.48;71.00;99622.30;2068660;83;21098;-80
2021/07/26 00:09:04;;;;;;;21.77;18.77;;;;;;;17.46;71.07;99616.34;2097890;82;21131;-78
2021/07/26 00:12:07;;;;;;;23.25;19.62;;;;;;;17.45;71.08;99621.91;2084829;82;21120;-78
2021/07/26 00:15:11;;;;;;;25.43;20.27;;;;;;;17.41;71.32;99614.03;2069407;82;21100;-78
2021/07/26 00:18:12;;;;;;;22.67;18.62;;;;;;;17.39;71.44;99612.89;2094057;82;21118;-77
2021/07/26 00:21:14;;;;;;;25.37;19.77;;;;;;;17.38;71.40;99608.58;2094003;82;21064;-78
2021/07/26 00:24:18;;;;;;;29.55;21.05;;;;;;;17.33;71.70;99597.70;2088164;83;21103;-78
2021/07/26 00:27:20;;;;;;;21.82;18.42;;;;;;;17.24;71.83;99596.37;2093621;83;21535;-78
2021/07/26 00:30:22;;;;;;;23.38;19.85;;;;;;;17.22;71.93;99605.96;2081873;83;21080;-80
2021/07/26 00:34:21;;;;;;;23.30;19.65;;;;;;;17.18;72.06;99595.40;2088037;83;21128;-78
2021/07/26 00:37:28;;;;;;;23.92;19.62;;;;;;;17.10;72.33;99591.67;2082748;82;21566;-78
2021/07/26 00:40:30;;;;;;;26.70;20.97;;;;;;;17.06;72.55;99604.38;2088291;82;21093;-79
2021/07/26 00:43:32;;;;;;;27.42;20.02;;;;;;;17.03;72.83;99598.94;2075316;82;21646;-78
2021/07/26 00:46:34;;;;;;;26.62;21.05;;;;;;;17.02;72.96;99604.02;2081142;83;21602;-78
2021/07/26 00:49:36;;;;;;;29.48;21.37;;;;;;;17.03;73.16;99597.11;2091620;83;21116;-80
2021/07/26 00:52:39;;;;;;;26.75;21.12;;;;;;;17.02;73.11;99591.95;2098051;82;21060;-79
2021/07/26 00:55:41;;;;;;;25.68;21.12;;;;;;;17.02;73.22;99588.75;2081382;83;21095;-78
2021/07/26 00:58:44;;;;;;;24.87;21.00;;;;;;;17.05;73.37;99589.35;2087855;82;21016;-78
2021/07/26 01:01:46;;;;;;;27.27;21.52;;;;;;;17.03;73.40;99590.41;2092487;82;21104;-78
2021/07/26 01:04:48;;;;;;;26.55;21.62;;;;;;;17.03;73.53;99586.39;2091054;83;21786;-78
2021/07/26 01:07:49;;;;;;;24.02;21.42;;;;;;;17.05;73.77;99580.78;2087888;82;21081;-79
2021/07/26 01:10:51;;;;;;;27.90;22.17;;;;;;;16.99;74.41;99582.49;2080974;83;21066;-77
2021/07/26 01:13:52;;;;;;;29.00;21.80;;;;;;;16.97;74.15;99579.73;2087338;82;21052;-78
2021/07/26 01:16:54;;;;;;;26.75;22.58;;;;;;;16.96;74.79;99580.78;2090727;82;21109;-78
2021/07/26 01:19:56;;;;;;;30.30;22.90;;;;;;;16.97;74.29;99577.05;2082848;83;21069;-80
2021/07/26 01:22:57;;;;;;;25.72;22.22;;;;;;;16.98;74.30;99574.16;2105217;82;21164;-79
2021/07/26 01:26:01;;;;;;;28.25;22.17;;;;;;;17.01;74.35;99575.06;2094506;82;21075;-77
2021/07/26 01:29:07;;;;;;;25.57;22.52;;;;;;;17.10;74.33;99581.47;2089816;83;21056;-78
2021/07/26 01:32:09;;;;;;;28.70;22.50;;;;;;;17.14;74.33;99578.11;2093010;82;21017;-77
2021/07/26 01:35:11;;;;;;;24.98;22.25;;;;;;;17.21;74.35;99574.03;2108137;82;21103;-80
2021/07/26 01:38:13;;;;;;;28.12;23.32;;;;;;;17.24;74.33;99567.69;2103207;82;21117;-78
2021/07/26 01:41:20;;;;;;;26.65;22.00;;;;;;;17.26;74.34;99568.83;2065326;83;21085;-77
2021/07/26 01:44:21;;;;;;;24.07;20.68;;;;;;;17.24;74.35;99572.24;2096330;82;21536;-78
2021/07/26 01:47:25;;;;;;;28.95;23.30;;;;;;;17.24;74.32;99575.73;2085374;82;21092;-78
2021/07/26 01:50:29;;;;;;;24.92;22.25;;;;;;;17.23;74.43;99571.43;2079483;82;21048;-81
2021/07/26 01:53:31;;;;;;;28.00;21.75;;;;;;;17.24;74.41;99570.90;2088970;82;21082;-78
2021/07/26 01:56:33;;;;;;;25.95;22.40;;;;;;;17.26;74.42;99574.19;2092931;83;21059;-78
2021/07/26 01:59:37;;;;;;;27.58;22.07;;;;;;;17.24;74.36;99577.08;2086729;83;21551;-80
2021/07/26 02:02:38;;;;;;;27.55;22.35;;;;;;;17.29;74.52;99578.25;2093609;82;21524;-80
2021/07/26 02:05:40;;;;;;;26.90;22.45;;;;;;;17.33;74.50;99584.30;2083594;82;21073;-80
2021/07/26 02:08:42;;;;;;;28.20;22.05;;;;;;;17.35;74.58;99587.58;2092928;82;21077;-78
2021/07/26 02:11:43;;;;;;;24.23;20.48;;;;;;;17.41;74.52;99587.20;2085981;82;21859;-80
2021/07/26 02:14:45;;;;;;;23.92;21.30;;;;;;;17.45;74.71;99586.52;2083427;83;21112;-78
2021/07/26 02:17:47;;;;;;;27.30;24.27;;;;;;;17.48;74.73;99594.64;2091316;82;21077;-80
2021/07/26 02:20:48;;;;;;;25.40;21.87;;;;;;;17.49;74.68;99605.69;2096022;82;21039;-79
2021/07/26 02:23:50;;;;;;;24.92;21.35;;;;;;;17.45;74.81;99617.36;2089184;82;21141;-78
2021/07/26 02:26:52;;;;;;;24.12;21.20;;;;;;;17.39;74.96;99614.77;2070010;82;21182;-79
2021/07/26 02:29:53;;;;;;;22.70;20.30;;;;;;;17.36;75.11;99628.63;2090162;82;21164;-78
2021/07/26 02:32:55;;;;;;;24.92;21.00;;;;;;;17.22;75.42;99641.34;2087227;82;21078;-78
2021/07/26 02:35:56;;;;;;;27.52;21.95;;;;;;;17.17;75.52;99639.31;2085208;82;21112;-80
2021/07/26 02:38:58;;;;;;;23.75;20.77;;;;;;;17.19;75.71;99647.15;2093798;82;21068;-78
2021/07/26 02:42:00;;;;;;;23.50;20.90;;;;;;;17.21;76.28;99647.75;2087444;83;21036;-80
2021/07/26 02:45:01;;;;;;;25.82;21.85;;;;;;;17.21;76.28;99645.08;2086966;83;21067;-80
2021/07/26 02:48:03;;;;;;;28.95;23.35;;;;;;;17.23;76.85;99635.77;2091962;83;21086;-79
2021/07/26 02:51:06;;;;;;;29.32;22.62;;;;;;;17.25;76.89;99628.83;2076205;82;21073;-78
2021/07/26 02:54:08;;;;;;;28.12;22.37;;;;;;;17.27;76.79;99621.39;2095151;82;21021;-78
2021/07/26 02:57:10;;;;;;;30.00;23.42;;;;;;;17.31;76.77;99613.19;2099148;82;21057;-80
2021/07/26 03:00:12;;;;;;;24.70;21.85;;;;;;;17.34;76.92;99617.29;2106890;82;21068;-78
2021/07/26 03:03:14;;;;;;;25.75;22.00;;;;;;;17.38;76.61;99613.13;2088305;82;21091;-81
2021/07/26 03:06:17;;;;;;;24.20;21.62;;;;;;;17.40;76.66;99609.19;2100224;82;22301;-78
2021/07/26 03:09:19;;;;;;;27.25;21.20;;;;;;;17.45;76.60;99603.14;2090111;82;21061;-80
2021/07/26 03:12:21;;;;;;;24.72;22.13;;;;;;;17.48;76.55;99591.46;2092807;82;21128;-81
2021/07/26 03:15:23;;;;;;;23.85;21.20;;;;;;;17.51;76.42;99585.33;2091909;83;21055;-81
2021/07/26 03:18:24;;;;;;;24.32;20.82;;;;;;;17.55;76.42;99578.48;2101446;82;21569;-80
2021/07/26 03:21:26;;;;;;;24.70;20.82;;;;;;;17.61;76.49;99583.76;2088565;82;21045;-79
2021/07/26 03:24:28;;;;;;;22.65;19.27;;;;;;;17.66;76.37;99592.48;2097613;82;20995;-78
2021/07/26 03:27:29;;;;;;;33.88;21.17;;;;;;;17.62;76.31;99611.39;2099813;82;21025;-78
2021/07/26 03:30:31;;;;;;;23.85;21.15;;;;;;;17.51;76.38;99602.77;2079963;82;21520;-78
2021/07/26 03:33:33;;;;;;;27.73;22.07;;;;;;;17.53;76.61;99612.75;2092277;82;21176;-78
2021/07/26 03:36:34;;;;;;;24.65;20.70;;;;;;;17.57;76.64;99604.54;2091384;82;21146;-78
2021/07/26 03:39:36;;;;;;;22.58;20.20;;;;;;;17.64;76.65;99594.56;2099359;82;21195;-78
2021/07/26 03:42:39;;;;;;;25.37;22.48;;;;;;;17.71;76.70;99591.28;2096655;82;22185;-79
2021/07/26 03:45:41;;;;;;;23.80;19.98;;;;;;;17.72;76.59;99602.30;2085050;83;21064;-78
2021/07/26 03:48:43;;;;;;;26.95;20.97;;;;;;;17.73;76.60;99616.53;2082591;83;21018;-81
2021/07/26 03:51:44;;;;;;;24.52;21.27;;;;;;;17.70;76.61;99609.75;2108401;82;21131;-79
2021/07/26 03:54:46;;;;;;;23.98;21.15;;;;;;;17.71;76.74;99607.38;2095662;82;21568;-78
2021/07/26 03:57:50;;;;;;;26.02;22.55;;;;;;;17.73;76.80;99612.50;2089207;83;21612;-79
2021/07/26 04:00:51;;;;;;;23.25;20.32;;;;;;;17.76;76.86;99614.20;2098383;82;21162;-78
2021/07/26 04:03:53;;;;;;;24.85;21.07;;;;;;;17.81;76.89;99612.23;2090626;83;21134;-78
2021/07/26 04:06:58;;;;;;;26.07;22.07;;;;;;;17.86;76.90;99614.53;2085705;82;21044;-79
2021/07/26 04:10:02;;;;;;;23.75;20.77;;;;;;;17.91;76.88;99611.18;2077338;82;21116;-81
2021/07/26 04:13:01;;;;;;;22.98;20.68;;;;;;;17.92;76.95;99606.91;2088681;83;21613;-81
2021/07/26 04:16:04;;;;;;;23.22;20.90;;;;;;;17.97;76.92;99614.82;2090340;82;21615;-81
2021/07/26 04:19:05;;;;;;;26.80;19.95;;;;;;;17.95;76.88;99612.34;2067589;82;21564;-80
2021/07/26 04:22:07;;;;;;;21.65;19.35;;;;;;;17.84;77.05;99602.38;2090800;83;21092;-80
2021/07/26 04:25:10;;;;;;;22.82;20.43;;;;;;;17.82;77.21;99613.86;2087428;82;21073;-79
2021/07/26 04:28:11;;;;;;;23.42;20.80;;;;;;;17.78;77.27;99614.00;2089033;82;21510;-81
2021/07/26 04:31:13;;;;;;;25.77;20.95;;;;;;;17.77;77.33;99615.86;2093239;83;21013;-79
2021/07/26 04:34:15;;;;;;;27.30;22.45;;;;;;;17.80;77.46;99622.15;2098810;82;22479;-78
2021/07/26 04:37:16;;;;;;;24.80;21.37;;;;;;;17.82;77.72;99630.80;2092861;82;21116;-78
2021/07/26 04:40:18;;;;;;;24.02;21.10;;;;;;;17.84;77.71;99631.38;2092736;82;21030;-80
2021/07/26 04:43:19;;;;;;;24.92;21.15;;;;;;;17.87;77.80;99632.79;2100135;82;21052;-78
2021/07/26 04:46:21;;;;;;;23.80;20.82;;;;;;;17.92;77.95;99637.78;2095926;82;21103;-79
2021/07/26 04:49:23;;;;;;;27.60;21.35;;;;;;;17.97;77.92;99642.48;2094679;83;21068;-78
2021/07/26 04:52:24;;;;;;;27.58;19.12;;;;;;;17.98;77.90;99652.69;2084952;82;21133;-78
2021/07/26 04:55:26;;;;;;;25.02;20.27;;;;;;;17.91;77.94;99650.91;2088515;83;21042;-78
2021/07/26 04:58:28;;;;;;;24.98;20.12;;;;;;;17.87;77.96;99647.55;2089541;82;21467;-80
2021/07/26 05:01:29;;;;;;;24.72;20.43;;;;;;;17.94;78.06;99643.46;2083902;82;21156;-79
2021/07/26 05:04:31;;;;;;;23.77;20.25;;;;;;;18.01;78.11;99634.78;2093270;82;21761;-78
2021/07/26 05:07:33;;;;;;;23.98;20.23;;;;;;;18.08;78.07;99640.36;2087849;83;21034;-77
2021/07/26 05:10:34;;;;;;;26.48;20.20;;;;;;;18.13;78.05;99641.00;2098219;82;21552;-78
2021/07/26 05:13:36;;;;;;;24.25;20.95;;;;;;;18.12;78.03;99643.41;2095499;82;21078;-80
2021/07/26 05:16:37;;;;;;;22.90;20.20;;;;;;;18.15;77.97;99646.45;2084640;83;22262;-79
2021/07/26 05:19:40;;;;;;;22.73;20.15;;;;;;;18.21;77.93;99646.59;2074578;82;21098;-79
2021/07/26 05:22:41;;;;;;;21.87;19.25;;;;;;;18.22;77.90;99641.00;2082927;82;21084;-78
2021/07/26 05:25:44;;;;;;;24.25;19.73;;;;;;;18.23;78.03;99646.66;2076400;82;21057;-78
2021/07/26 05:28:46;;;;;;;23.92;21.12;;;;;;;18.24;78.07;99641.57;2097090;82;21104;-80
2021/07/26 05:31:48;;;;;;;22.52;20.23;;;;;;;18.19;78.09;99642.80;2079594;82;21056;-78
2021/07/26 05:34:49;;;;;;;22.85;19.52;;;;;;;18.13;78.12;99643.19;2084732;83;21120;-86
2021/07/26 05:37:51;;;;;;;21.90;19.60;;;;;;;18.09;78.23;99643.33;2092109;83;21194;-78
2021/07/26 05:40:53;;;;;;;21.05;18.55;;;;;;;18.11;78.33;99649.83;2083077;82;21582;-78
2021/07/26 05:43:55;;;;;;;21.65;19.45;;;;;;;18.11;78.54;99656.55;2104694;82;21634;-77
2021/07/26 05:46:56;;;;;;;22.82;20.23;;;;;;;18.09;78.76;99662.66;2096687;82;21080;-77
2021/07/26 05:49:58;;;;;;;21.52;18.77;;;;;;;18.12;78.86;99662.20;2096322;82;21080;-77
2021/07/26 05:53:04;;;;;;;24.25;20.32;;;;;;;18.14;78.98;99661.45;2092278;82;21108;-79
2021/07/26 05:56:07;;;;;;;24.50;20.23;;;;;;;18.17;79.10;99667.71;2090566;83;21111;-77
2021/07/26 05:59:09;;;;;;;21.60;19.30;;;;;;;18.18;79.22;99662.62;2076396;83;21162;-80
2021/07/26 06:02:11;;;;;;;23.35;19.52;;;;;;;18.29;79.41;99663.20;2098780;82;21168;-77
2021/07/26 06:05:12;;;;;;;20.85;18.65;;;;;;;18.36;79.29;99665.27;2087225;82;21083;-78
2021/07/26 06:08:14;;;;;;;23.83;19.48;;;;;;;18.37;79.42;99677.64;2091568;82;21092;-79
2021/07/26 06:11:15;;;;;;;24.72;18.12;;;;;;;18.45;79.69;99685.09;2085361;82;21064;-77
2021/07/26 06:14:17;;;;;;;24.60;19.42;;;;;;;18.48;79.58;99688.14;2089725;82;21110;-75
2021/07/26 06:17:19;;;;;;;27.55;20.23;;;;;;;18.44;79.60;99691.50;2085405;82;21724;-78
2021/07/26 06:20:21;;;;;;;21.87;19.57;;;;;;;18.48;79.76;99706.13;2094301;82;22051;-76
2021/07/26 06:23:22;;;;;;;22.35;19.95;;;;;;;18.44;79.99;99708.43;2063445;83;21148;-78
2021/07/26 06:26:24;;;;;;;21.48;19.05;;;;;;;18.43;79.95;99717.55;2072011;83;21141;-84
2021/07/26 06:29:26;;;;;;;20.62;18.32;;;;;;;18.42;80.14;99715.92;2083509;82;21615;-82
2021/07/26 06:32:31;;;;;;;21.33;19.02;;;;;;;18.45;80.24;99722.70;2097148;82;21268;-80
2021/07/26 06:35:31;;;;;;;20.82;18.35;;;;;;;18.49;80.43;99723.34;2096120;82;21121;-80
2021/07/26 06:38:33;;;;;;;20.68;18.48;;;;;;;18.49;80.54;99715.81;2083422;82;21089;-77
2021/07/26 06:41:34;;;;;;;23.90;18.92;;;;;;;18.49;80.58;99720.66;2095241;82;21163;-79
2021/07/26 06:44:37;;;;;;;27.27;19.25;;;;;;;18.49;80.71;99721.19;2094870;82;21119;-78
2021/07/26 06:47:39;;;;;;;22.13;19.62;;;;;;;18.48;80.77;99715.00;2105246;82;21064;-82
2021/07/26 06:50:40;;;;;;;22.58;20.27;;;;;;;18.52;80.97;99714.83;2097459;82;21216;-78
2021/07/26 06:53:43;;;;;;;21.82;19.37;;;;;;;18.56;81.34;99713.34;2076975;83;21701;-78
2021/07/26 06:56:45;;;;;;;21.93;19.48;;;;;;;18.61;81.54;99709.95;2084666;83;21096;-79
2021/07/26 06:59:47;;;;;;;24.20;19.12;;;;;;;18.64;81.46;99709.52;2083521;83;21067;-82
2021/07/26 07:02:50;;;;;;;23.12;19.92;;;;;;;18.70;81.47;99710.47;2093404;82;21062;-80
2021/07/26 07:05:52;;;;;;;22.82;20.10;;;;;;;18.77;81.82;99707.98;2089078;83;21767;-86
2021/07/26 07:08:54;;;;;;;23.05;18.48;;;;;;;18.83;81.90;99707.58;2092880;82;21622;-83
2021/07/26 07:11:55;;;;;;;24.12;18.98;;;;;;;18.88;82.08;99713.09;2088168;82;21951;-80
2021/07/26 07:14:57;;;;;;;25.68;19.37;;;;;;;18.95;82.08;99717.01;2096605;82;21032;-78
2021/07/26 07:17:58;;;;;;;25.12;20.30;;;;;;;19.01;82.22;99716.11;2071747;82;21024;-84
2021/07/26 07:21:00;;;;;;;24.72;20.35;;;;;;;19.14;82.10;99713.18;2099218;82;21158;-75
2021/07/26 07:24:03;;;;;;;24.80;20.37;;;;;;;19.24;81.94;99712.09;2090252;82;21060;-82
2021/07/26 07:27:04;;;;;;;22.62;19.45;;;;;;;19.33;82.11;99711.20;2099767;82;21151;-79
2021/07/26 07:30:07;;;;;;;21.80;19.50;;;;;;;19.41;81.91;99709.52;2087034;83;21038;-77
2021/07/26 07:33:09;;;;;;;23.90;19.90;;;;;;;19.49;81.73;99708.34;2099555;82;21124;-76
2021/07/26 07:36:10;;;;;;;21.37;19.07;;;;;;;19.62;81.47;99706.73;2087297;83;21059;-78
2021/07/26 07:39:12;;;;;;;25.40;20.02;;;;;;;19.79;81.19;99721.66;2095579;82;22082;-76
2021/07/26 07:42:13;;;;;;;22.42;19.55;;;;;;;20.03;81.04;99718.41;2078377;83;22246;-74
2021/07/26 07:45:16;;;;;;;22.30;19.15;;;;;;;20.20;80.58;99723.05;2082663;83;21031;-75
2021/07/26 07:48:20;;;;;;;21.23;17.12;;;;;;;20.36;80.00;99733.06;2095570;82;21068;-75
2021/07/26 07:51:22;;;;;;;19.95;17.95;;;;;;;20.45;79.39;99730.27;2088049;82;22271;-76
2021/07/26 07:54:24;;;;;;;23.50;18.35;;;;;;;20.60;79.45;99727.05;2079543;82;21017;-77
2021/07/26 07:57:29;;;;;;;23.90;19.35;;;;;;;20.71;78.50;99734.80;2080456;82;21825;-80
2021/07/26 08:00:30;;;;;;;20.27;18.25;;;;;;;20.75;78.22;99740.83;2097244;82;21179;-80
2021/07/26 08:03:32;;;;;;;22.22;19.23;;;;;;;20.91;77.51;99732.98;2083694;82;21147;-80
2021/07/26 08:06:35;;;;;;;22.30;19.87;;;;;;;21.31;78.45;99728.77;2097113;82;21758;-80
2021/07/26 08:09:37;;;;;;;19.37;17.30;;;;;;;21.80;77.64;99731.67;2099353;82;21578;-79
2021/07/26 08:12:38;;;;;;;23.83;20.02;;;;;;;22.07;75.57;99724.16;2099249;82;21057;-78
2021/07/26 08:15:47;;;;;;;22.90;18.10;;;;;;;22.18;75.15;99729.99;2097558;82;21074;-81
2021/07/26 08:18:49;;;;;;;21.80;19.48;;;;;;;22.38;75.16;99734.30;2089328;82;21725;-79
2021/07/26 08:21:50;;;;;;;25.05;19.95;;;;;;;22.55;74.77;99734.20;2078382;83;21068;-80
2021/07/26 08:24:52;;;;;;;23.10;18.67;;;;;;;22.64;73.53;99731.86;2080481;82;21111;-81
2021/07/26 08:27:56;;;;;;;19.75;17.45;;;;;;;22.66;73.93;99740.51;2078823;82;21218;-79
2021/07/26 08:31:03;;;;;;;21.77;18.17;;;;;;;22.77;73.49;99741.42;2100841;82;21058;-80
2021/07/26 08:34:05;;;;;;;19.42;17.27;;;;;;;22.82;72.49;99736.88;2102073;82;21127;-81
2021/07/26 08:37:06;;;;;;;23.12;17.50;;;;;;;22.83;72.89;99742.59;2084728;82;21140;-81
2021/07/26 08:40:10;;;;;;;22.82;19.65;;;;;;;22.92;72.68;99752.91;2079969;82;21073;-79
2021/07/26 08:43:12;;;;;;;21.77;19.50;;;;;;;22.89;71.86;99752.08;2101234;82;21413;-80
2021/07/26 08:46:18;;;;;;;22.13;19.82;;;;;;;22.82;72.13;99753.66;2091669;82;21598;-79
2021/07/26 08:49:22;;;;;;;25.23;19.62;;;;;;;22.74;71.43;99759.52;2086383;83;21064;-80
2021/07/26 08:52:27;;;;;;;23.52;20.75;;;;;;;22.61;71.82;99759.41;2084645;83;21029;-79
2021/07/26 08:55:32;;;;;;;22.75;20.35;;;;;;;22.62;71.80;99762.38;2100946;83;21092;-79
2021/07/26 08:58:35;;;;;;;24.35;21.00;;;;;;;22.52;71.73;99759.02;2084651;83;21138;-79
2021/07/26 09:01:38;;;;;;;22.80;19.98;;;;;;;22.44;72.00;99759.50;2095897;82;21125;-80
2021/07/26 09:04:40;;;;;;;24.77;22.07;;;;;;;22.53;71.93;99772.03;2087193;82;21551;-79
2021/07/26 09:07:48;;;;;;;29.92;21.02;;;;;;;22.59;71.72;99776.41;2087911;82;21100;-81
2021/07/26 09:10:50;;;;;;;25.52;21.45;;;;;;;22.62;71.80;99775.91;2085657;82;21036;-81
2021/07/26 09:13:51;;;;;;;24.82;21.95;;;;;;;22.72;71.49;99779.23;2081946;83;21077;-82
2021/07/26 09:16:56;;;;;;;25.02;20.70;;;;;;;22.77;71.82;99780.10;2081587;83;22123;-78
2021/07/26 09:20:01;;;;;;;23.55;21.07;;;;;;;22.73;70.98;99772.77;2096832;82;21136;-83
2021/07/26 09:23:18;;;;;;;28.02;20.85;;;;;;;22.71;71.32;99774.36;2093931;82;21048;-80
2021/07/26 09:26:27;;;;;;;25.17;20.30;;;;;;;22.87;71.67;99781.30;2079837;83;22182;-80
2021/07/26 09:29:30;;;;;;;23.07;20.63;;;;;;;23.32;71.83;99779.55;2086425;82;21641;-80
2021/07/26 09:32:37;;;;;;;20.35;18.25;;;;;;;23.77;70.27;99784.22;2081988;82;21260;-82
2021/07/26 09:35:38;;;;;;;20.52;18.00;;;;;;;24.42;70.51;99776.11;2081403;83;22104;-81
2021/07/26 09:38:58;;;;;;;20.35;18.17;;;;;;;25.16;69.52;99776.28;2073854;82;21122;-78
2021/07/26 09:42:00;;;;;;;20.92;18.62;;;;;;;25.65;68.15;99781.66;2074076;82;21548;-79
2021/07/26 09:45:22;;;;;;;19.48;17.45;;;;;;;26.32;67.78;99774.14;2102318;82;21112;-81
2021/07/26 09:48:29;;;;;;;20.52;16.77;;;;;;;26.95;66.27;99776.27;2090716;82;21148;-78
2021/07/26 09:51:30;;;;;;;23.62;17.57;;;;;;;27.50;65.00;99776.34;2080094;82;21153;-79
2021/07/26 09:54:52;;;;;;;17.73;15.93;;;;;;;27.94;63.64;99775.38;2088131;82;21084;-80
2021/07/26 09:57:59;;;;;;;19.95;17.48;;;;;;;28.14;62.43;99770.22;2081679;83;21603;-80
2021/07/26 10:01:04;;;;;;;21.82;18.07;;;;;;;28.39;60.62;99764.19;2078987;83;21121;-81
2021/07/26 10:04:05;;;;;;;17.17;15.20;;;;;;;28.30;59.57;99763.23;2100262;82;21581;-81
2021/07/26 10:07:07;;;;;;;17.12;15.35;;;;;;;28.38;59.45;99763.38;2072073;83;21067;-79
2021/07/26 10:10:11;;;;;;;16.80;15.00;;;;;;;28.43;59.14;99765.23;2093375;83;21076;-80
2021/07/26 10:13:13;;;;;;;16.95;15.32;;;;;;;28.66;59.08;99766.83;2088099;82;21047;-80
2021/07/26 10:16:18;;;;;;;18.85;15.60;;;;;;;28.67;57.21;99754.83;2071949;83;21061;-80
2021/07/26 10:19:19;;;;;;;17.45;15.32;;;;;;;28.75;57.84;99756.89;2094396;82;21698;-80
2021/07/26 10:22:25;;;;;;;20.10;14.63;;;;;;;28.86;57.32;99762.42;2092616;82;21085;-80
2021/07/26 10:25:41;;;;;;;17.92;16.02;;;;;;;28.99;56.67;99760.87;2090312;82;21540;-77
2021/07/26 10:28:55;;;;;;;16.77;15.08;;;;;;;29.22;55.89;99768.70;2067322;83;21540;-80
2021/07/26 10:31:56;;;;;;;16.60;15.03;;;;;;;29.31;54.30;99768.27;2094141;82;21041;-73
2021/07/26 10:35:00;;;;;;;18.23;14.83;;;;;;;29.34;55.24;99773.16;2098340;82;21121;-72
2021/07/26 10:38:02;;;;;;;15.95;13.93;;;;;;;29.50;54.78;99774.48;2072312;82;21652;-73
2021/07/26 10:41:03;;;;;;;20.32;15.63;;;;;;;29.84;55.01;99771.17;2056600;83;21510;-72
2021/07/26 10:44:07;;;;;;;15.90;14.30;;;;;;;30.00;53.87;99764.85;2087809;82;21002;-72
2021/07/26 10:47:14;;;;;;;16.02;14.43;;;;;;;29.85;53.61;99768.70;2089022;82;21033;-72
2021/07/26 10:50:16;;;;;;;16.12;14.43;;;;;;;29.91;53.83;99772.39;2085338;82;21027;-72
2021/07/26 10:53:38;;;;;;;17.32;15.53;;;;;;;29.96;52.98;99765.19;2092997;82;21161;-74
2021/07/26 10:57:09;;;;;;;17.65;15.95;;;;;;;29.97;52.92;99766.83;2090190;83;21602;-73
2021/07/26 11:00:20;;;;;;;17.67;14.73;;;;;;;29.77;52.14;99764.75;2065873;83;21157;-76
2021/07/26 11:03:42;;;;;;;16.97;14.95;;;;;;;29.57;52.39;99765.11;2091548;83;21152;-75
2021/07/26 11:06:49;;;;;;;17.07;15.38;;;;;;;29.57;52.39;99765.11;2094144;82;21097;-72
2021/07/26 11:09:52;;;;;;;18.20;15.48;;;;;;;29.82;52.26;99761.08;2074414;83;21658;-73
2021/07/26 11:12:55;;;;;;;18.60;16.50;;;;;;;29.80;52.06;99734.06;2072867;83;21094;-75
2021/07/26 11:15:57;;;;;;;17.98;16.27;;;;;;;29.74;50.70;99753.05;2080072;82;21086;-73
2021/07/26 11:19:04;;;;;;;20.48;16.02;;;;;;;29.54;50.03;99746.55;2093523;83;21131;-73
2021/07/26 11:22:16;;;;;;;19.32;17.42;;;;;;;29.60;50.54;99751.64;2084140;82;21715;-73
2021/07/26 11:25:20;;;;;;;18.70;16.75;;;;;;;29.89;50.16;99747.27;2086724;82;21124;-75
2021/07/26 11:28:23;;;;;;;18.32;16.52;;;;;;;29.98;49.75;99720.58;2096483;82;21603;-72
2021/07/26 11:31:34;;;;;;;18.65;16.80;;;;;;;30.15;49.46;99744.80;2086579;83;21073;-73
2021/07/26 11:34:36;;;;;;;17.70;15.70;;;;;;;30.31;48.86;99742.59;2092018;82;21049;-73
2021/07/26 11:37:43;;;;;;;18.20;16.40;;;;;;;30.45;48.47;99738.45;2086937;83;21096;-76
2021/07/26 11:40:42;;;;;;;18.55;16.65;;;;;;;30.44;47.43;99741.48;2082222;82;21575;-74
2021/07/26 11:43:47;;;;;;;16.87;15.03;;;;;;;30.43;47.44;99735.77;2098548;82;21052;-73
2021/07/26 11:46:49;;;;;;;16.77;14.98;;;;;;;30.51;48.13;99732.31;2092608;82;21052;-77
2021/07/26 11:49:51;;;;;;;18.20;16.30;;;;;;;30.59;47.90;99720.06;2055492;83;21068;-73
2021/07/26 11:52:56;;;;;;;16.77;15.15;;;;;;;30.79;47.65;99717.95;2093400;83;21582;-74
2021/07/26 11:55:57;;;;;;;17.40;15.65;;;;;;;30.91;47.23;99709.20;2078958;83;21625;-73
2021/07/26 11:59:20;;;;;;;18.07;14.80;;;;;;;30.84;46.92;99715.12;2077970;83;21163;-75
2021/07/26 12:02:32;;;;;;;21.30;15.72;;;;;;;30.88;47.39;99704.35;2075638;83;21069;-72
2021/07/26 12:05:35;;;;;;;20.35;16.35;;;;;;;30.97;47.21;99707.95;2093623;82;21117;-74
2021/07/26 12:08:37;;;;;;;18.30;16.42;;;;;;;30.95;46.52;99703.36;2090772;83;21030;-73
2021/07/26 12:11:39;;;;;;;16.90;15.20;;;;;;;30.99;46.50;99701.60;2088865;82;21021;-73
2021/07/26 12:14:42;;;;;;;18.25;16.55;;;;;;;30.98;45.87;99697.26;2088851;83;21072;-76
2021/07/26 12:17:44;;;;;;;17.90;16.00;;;;;;;30.86;45.80;99693.73;2083528;82;21054;-78
2021/07/26 12:21:00;;;;;;;18.07;15.28;;;;;;;30.89;46.52;99693.10;2080423;82;21072;-72
2021/07/26 12:24:00;;;;;;;19.82;15.95;;;;;;;30.86;45.84;99697.83;2094406;82;22664;-74
2021/07/26 12:27:02;;;;;;;16.45;14.73;;;;;;;30.85;45.88;99694.83;2090663;82;21093;-76
2021/07/26 12:30:12;;;;;;;17.67;15.88;;;;;;;30.99;46.54;99707.08;2099677;82;21064;-73
2021/07/26 12:33:30;;;;;;;17.42;15.68;;;;;;;30.88;45.72;99702.98;2081322;83;21141;-73
2021/07/26 12:36:35;;;;;;;27.10;15.20;;;;;;;30.63;45.87;99709.30;2100600;82;21125;-74
2021/07/26 12:39:39;;;;;;;21.00;16.15;;;;;;;30.79;46.08;99713.84;2079779;83;21141;-73
2021/07/26 12:42:40;;;;;;;17.27;15.50;;;;;;;30.84;46.15;99702.00;2096779;83;21032;-75
2021/07/26 12:45:43;;;;;;;17.98;15.32;;;;;;;30.80;45.61;99705.91;2092492;82;21125;-76
2021/07/26 12:48:44;;;;;;;18.25;15.10;;;;;;;30.87;46.20;99709.59;2078071;82;21022;-73
2021/07/26 12:51:48;;;;;;;16.57;14.87;;;;;;;30.97;45.59;99711.52;2082837;83;21081;-73
2021/07/26 12:54:50;;;;;;;16.70;14.85;;;;;;;30.97;45.38;99709.32;2083765;83;21045;-74
2021/07/26 12:57:53;;;;;;;16.50;14.98;;;;;;;30.87;45.33;99719.17;2101509;82;22078;-72
2021/07/26 13:00:55;;;;;;;17.98;16.10;;;;;;;30.62;45.38;99723.30;2085928;82;21008;-72
2021/07/26 13:03:57;;;;;;;16.35;14.85;;;;;;;30.31;46.12;99723.44;2090435;82;21084;-75
2021/07/26 13:06:59;;;;;;;18.02;15.93;;;;;;;30.08;46.26;99724.47;2099601;82;21075;-75
2021/07/26 13:10:01;;;;;;;18.02;15.95;;;;;;;30.00;46.41;99717.79;2095259;83;21060;-72
2021/07/26 13:13:02;;;;;;;17.55;15.72;;;;;;;29.83;47.00;99717.61;2084286;82;21049;-73
2021/07/26 13:16:05;;;;;;;15.95;14.38;;;;;;;29.69;47.07;99717.61;2103229;82;21619;-71
2021/07/26 13:19:07;;;;;;;16.23;14.68;;;;;;;29.67;47.31;99717.09;2106557;82;21482;-75
2021/07/26 13:22:08;;;;;;;16.52;14.90;;;;;;;29.79;46.85;99712.48;2065462;84;21020;-77
2021/07/26 13:25:11;;;;;;;16.73;14.93;;;;;;;29.82;47.14;99707.23;2085432;83;21017;-74
2021/07/26 13:28:13;;;;;;;16.60;14.87;;;;;;;30.01;47.26;99694.78;2100099;82;21002;-76
2021/07/26 13:31:15;;;;;;;16.87;14.78;;;;;;;30.14;47.13;99693.95;2085095;83;21092;-74
2021/07/26 13:34:17;;;;;;;16.27;14.70;;;;;;;30.30;46.96;99699.94;2095316;82;21100;-76
2021/07/26 13:37:18;;;;;;;17.55;14.73;;;;;;;30.45;47.06;99691.92;2084427;83;21176;-78
2021/07/26 13:40:21;;;;;;;17.62;14.73;;;;;;;30.60;47.00;99693.48;2084451;83;21067;-72
2021/07/26 13:43:23;;;;;;;16.45;14.75;;;;;;;30.61;46.25;99695.13;2092215;83;21054;-74
2021/07/26 13:46:25;;;;;;;16.85;15.15;;;;;;;30.53;46.10;99698.03;2081706;83;21073;-75
2021/07/26 13:49:26;;;;;;;17.37;14.03;;;;;;;30.57;46.22;99695.48;2097893;82;21029;-75
2021/07/26 13:52:32;;;;;;;18.32;15.03;;;;;;;30.53;45.67;99693.12;2099950;82;21075;-73
2021/07/26 13:55:34;;;;;;;17.05;15.23;;;;;;;30.53;45.76;99691.76;2102088;82;21104;-74
2021/07/26 13:58:36;;;;;;;15.43;13.95;;;;;;;30.52;45.65;99699.70;2093562;82;21636;-76
2021/07/26 14:01:38;;;;;;;16.55;14.90;;;;;;;30.41;45.34;99688.73;2094425;83;21071;-74
2021/07/26 14:04:42;;;;;;;16.10;14.50;;;;;;;30.25;45.87;99697.31;2094353;82;21747;-73